createdAt,value
2023-03-15T00:02:07.541Z,77.96
2023-03-15T00:04:35.281Z,76.38
2023-03-15T00:07:03.130Z,76.70
2023-03-15T00:09:31.966Z,76.54
2023-03-15T00:11:59.536Z,77.50
2023-03-15T00:14:27.277Z,76.94
2023-03-15T00:16:55.269Z,76.51
2023-03-15T00:19:22.906Z,76.76
2023-03-15T00:21:50.456Z,77.75
2023-03-15T00:24:17.952Z,78.68
2023-03-15T00:26:46.986Z,79.10
2023-03-15T00:29:14.652Z,78.28
2023-03-15T00:31:42.178Z,77.64
2023-03-15T00:34:09.743Z,78.00
2023-03-15T00:36:37.666Z,77.47
2023-03-15T00:39:05.574Z,75.68
2023-03-15T00:41:33.211Z,75.70
2023-03-15T00:44:03.799Z,75.00
2023-03-15T00:46:31.613Z,74.20
2023-03-15T00:49:00.259Z,73.79
2023-03-15T00:51:27.851Z,73.44
2023-03-15T00:53:55.405Z,73.36
2023-03-15T00:56:24.697Z,73.83
2023-03-15T00:58:53.218Z,73.61
2023-03-15T01:01:24.229Z,74.04
2023-03-15T01:03:51.910Z,74.62
2023-03-15T01:06:21.897Z,74.79
2023-03-15T01:08:49.798Z,74.92
2023-03-15T01:11:19.989Z,75.51
2023-03-15T01:13:48.305Z,76.78
2023-03-15T01:16:16.465Z,75.87
2023-03-15T01:18:45.404Z,74.98
2023-03-15T01:21:15.451Z,75.52
2023-03-15T01:23:43.018Z,76.01
2023-03-15T01:26:19.101Z,77.33
2023-03-15T01:28:47.065Z,77.36
2023-03-15T01:31:18.861Z,78.64
2023-03-15T01:33:48.064Z,79.10
2023-03-15T01:36:16.104Z,79.90
2023-03-15T01:38:43.834Z,80.88
2023-03-15T01:41:12.558Z,81.21
2023-03-15T01:43:46.943Z,81.97
2023-03-15T01:46:26.711Z,82.47
2023-03-15T01:49:01.615Z,82.61
2023-03-15T01:51:35.438Z,83.08
2023-03-15T01:54:07.700Z,83.08
2023-03-15T01:56:38.398Z,82.48
2023-03-15T01:59:08.317Z,83.81
2023-03-15T02:01:38.006Z,83.77
2023-03-15T02:04:10.718Z,83.94
2023-03-15T02:06:38.776Z,85.28
2023-03-15T02:09:09.790Z,85.06
2023-03-15T02:11:37.939Z,85.86
2023-03-15T02:14:06.534Z,85.95
2023-03-15T02:16:34.989Z,86.83
2023-03-15T02:19:02.639Z,86.04
2023-03-15T02:21:43.263Z,86.71
2023-03-15T02:24:22.277Z,86.11
2023-03-15T02:26:52.714Z,87.03
2023-03-15T02:29:24.272Z,87.09
2023-03-15T02:31:53.812Z,88.31
2023-03-15T02:34:25.232Z,87.52
2023-03-15T02:36:54.679Z,88.16
2023-03-15T02:39:23.616Z,89.57
2023-03-15T02:41:54.618Z,89.81
2023-03-15T02:44:29.310Z,88.83
2023-03-15T02:47:01.244Z,90.07
2023-03-15T02:49:32.528Z,89.07
2023-03-15T02:52:00.065Z,89.89
2023-03-15T02:54:27.666Z,90.47
2023-03-15T02:56:55.309Z,89.16
2023-03-15T02:59:24.207Z,88.73
2023-03-15T03:01:51.873Z,89.75
2023-03-15T03:04:19.721Z,89.84
2023-03-15T03:06:47.348Z,89.63
2023-03-15T03:09:15.214Z,88.14
2023-03-15T03:11:42.724Z,88.20
2023-03-15T03:14:10.257Z,87.70
2023-03-15T03:16:39.216Z,87.65
2023-03-15T03:19:06.840Z,87.24
2023-03-15T03:21:34.386Z,87.53
2023-03-15T03:24:01.924Z,87.08
2023-03-15T03:26:32.746Z,87.52
2023-03-15T03:29:00.432Z,86.99
2023-03-15T03:31:29.010Z,87.95
2023-03-15T03:33:57.965Z,88.45
2023-03-15T03:36:25.834Z,89.03
2023-03-15T03:38:54.679Z,88.67
2023-03-15T03:41:22.303Z,89.61
2023-03-15T03:43:50.667Z,89.15
2023-03-15T03:46:18.222Z,88.86
2023-03-15T03:48:45.935Z,89.21
2023-03-15T03:51:14.863Z,89.28
2023-03-15T03:53:42.505Z,89.26
2023-03-15T03:56:10.477Z,88.76
2023-03-15T03:58:38.178Z,88.85
2023-03-15T04:01:06.193Z,88.38
2023-03-15T04:03:34.211Z,89.08
2023-03-15T04:06:05.629Z,89.30
2023-03-15T04:08:34.794Z,89.91
2023-03-15T04:11:03.999Z,89.38
2023-03-15T04:13:32.441Z,89.87
2023-03-15T04:16:02.327Z,90.97
2023-03-15T04:18:30.202Z,90.16
2023-03-15T04:20:57.737Z,89.11
2023-03-15T04:23:25.878Z,89.60
2023-03-15T04:25:55.553Z,88.53
2023-03-15T04:28:23.732Z,87.94
2023-03-15T04:30:52.111Z,87.54
2023-03-15T04:33:19.655Z,88.77
2023-03-15T04:35:47.307Z,88.05
2023-03-15T04:38:15.210Z,88.05
2023-03-15T04:40:42.759Z,88.36
2023-03-15T04:43:11.732Z,87.96
2023-03-15T04:45:39.244Z,87.37
2023-03-15T04:48:07.092Z,88.62
2023-03-15T04:50:34.654Z,88.73
2023-03-15T04:53:02.294Z,88.59
2023-03-15T04:55:29.885Z,88.13
2023-03-15T04:57:58.312Z,88.89
2023-03-15T05:00:27.301Z,88.26
2023-03-15T05:02:55.592Z,88.64
2023-03-15T05:05:24.712Z,88.38
2023-03-15T05:07:52.410Z,88.94
2023-03-15T05:10:20.170Z,88.36
2023-03-15T05:12:47.834Z,87.91
2023-03-15T05:15:17.157Z,87.93
2023-03-15T05:17:46.813Z,88.24
2023-03-15T05:20:15.579Z,87.99
2023-03-15T05:22:44.009Z,88.21
2023-03-15T05:25:11.792Z,88.60
2023-03-15T05:27:39.706Z,87.02
2023-03-15T05:30:10.263Z,87.82
2023-03-15T05:32:39.539Z,87.29
2023-03-15T05:35:09.890Z,87.28
2023-03-15T05:37:37.611Z,87.26
2023-03-15T05:40:08.153Z,87.75
2023-03-15T05:42:36.301Z,87.04
2023-03-15T05:45:04.050Z,87.97
2023-03-15T05:47:33.245Z,86.69
2023-03-15T05:50:01.726Z,88.01
2023-03-15T05:52:30.836Z,89.13
2023-03-15T05:55:00.660Z,90.81
2023-03-15T05:57:28.504Z,92.39
2023-03-15T05:59:57.692Z,95.45
2023-03-15T06:02:25.444Z,97.07
2023-03-15T06:04:53.074Z,98.62
2023-03-15T06:07:21.181Z,99.49
2023-03-15T06:09:50.184Z,100.00
2023-03-15T06:12:17.755Z,100.00
2023-03-15T06:14:45.428Z,100.00
2023-03-15T06:17:13.148Z,100.00
2023-03-15T06:19:40.752Z,100.00
2023-03-15T06:22:08.908Z,100.00
2023-03-15T06:24:37.057Z,100.00
2023-03-15T06:27:06.249Z,100.00
2023-03-15T06:29:34.550Z,100.00
2023-03-15T06:32:03.193Z,100.00
2023-03-15T06:34:30.780Z,100.00
2023-03-15T06:36:58.412Z,100.00
2023-03-15T06:39:26.126Z,98.89
2023-03-15T06:41:57.266Z,99.67
2023-03-15T06:44:26.405Z,98.70
2023-03-15T06:46:54.117Z,98.42
2023-03-15T06:49:21.764Z,96.57
2023-03-15T06:51:49.416Z,97.48
2023-03-15T06:54:18.440Z,96.60
2023-03-15T06:56:46.091Z,96.23
2023-03-15T06:59:13.793Z,95.38
2023-03-15T07:01:42.821Z,96.12
2023-03-15T07:04:10.906Z,96.69
2023-03-15T07:06:38.516Z,97.14
2023-03-15T07:09:06.640Z,98.18
2023-03-15T07:11:34.599Z,97.26
2023-03-15T07:14:02.355Z,96.02
2023-03-15T07:16:30.524Z,96.17
2023-03-15T07:19:00.028Z,96.35
2023-03-15T07:21:27.727Z,97.62
2023-03-15T07:23:57.603Z,97.06
2023-03-15T07:26:25.311Z,97.87
2023-03-15T07:28:53.053Z,97.27
2023-03-15T07:31:22.226Z,96.56
2023-03-15T07:33:49.885Z,95.46
2023-03-15T07:36:19.238Z,95.44
2023-03-15T07:38:48.299Z,94.58
2023-03-15T07:41:15.873Z,95.63
2023-03-15T07:43:43.805Z,94.71
2023-03-15T07:46:11.541Z,95.47
2023-03-15T07:48:48.607Z,96.01
2023-03-15T07:51:17.175Z,96.83
2023-03-15T07:53:48.204Z,94.06
2023-03-15T07:56:16.000Z,92.50
2023-03-15T07:58:43.615Z,90.68
2023-03-15T08:01:11.246Z,88.53
2023-03-15T08:03:38.786Z,87.25
2023-03-15T08:06:06.819Z,86.16
2023-03-15T08:08:34.518Z,85.96
2023-03-15T08:11:03.435Z,83.29
2023-03-15T08:13:31.124Z,83.68
2023-03-15T08:15:58.706Z,83.45
2023-03-15T08:18:28.819Z,83.83
2023-03-15T08:20:56.864Z,83.13
2023-03-15T08:23:25.587Z,83.87
2023-03-15T08:25:53.252Z,82.83
2023-03-15T08:28:24.253Z,83.48
2023-03-15T08:30:51.957Z,83.00
2023-03-15T08:33:20.040Z,83.64
2023-03-15T08:35:52.454Z,84.77
2023-03-15T08:38:20.033Z,85.54
2023-03-15T08:40:48.455Z,85.51
2023-03-15T08:43:16.166Z,85.28
2023-03-15T08:46:00.113Z,84.03
2023-03-15T08:48:29.284Z,83.72
2023-03-15T08:50:58.247Z,83.53
2023-03-15T08:53:25.972Z,82.44
2023-03-15T08:55:53.619Z,82.74
2023-03-15T08:58:21.238Z,82.85
2023-03-15T09:00:58.748Z,81.11
2023-03-15T09:03:26.400Z,80.62
2023-03-15T09:05:57.298Z,80.36
2023-03-15T09:08:25.161Z,82.38
2023-03-15T09:10:55.230Z,82.63
2023-03-15T09:13:23.534Z,82.04
2023-03-15T09:15:53.235Z,80.78
2023-03-15T09:18:21.352Z,80.25
2023-03-15T09:20:48.970Z,81.38
2023-03-15T09:23:16.854Z,81.14
2023-03-15T09:25:44.545Z,77.90
2023-03-15T09:28:12.818Z,75.39
2023-03-15T09:30:42.227Z,74.58
2023-03-15T09:33:14.580Z,73.25
2023-03-15T09:35:42.485Z,70.45
2023-03-15T09:38:10.508Z,69.67
2023-03-15T09:40:41.848Z,71.66
2023-03-15T09:43:44.544Z,72.71
2023-03-15T09:46:27.618Z,72.71
2023-03-15T09:49:05.161Z,72.11
2023-03-15T09:51:41.450Z,71.25
2023-03-15T09:54:13.724Z,71.80
2023-03-15T09:56:46.880Z,71.50
2023-03-15T09:59:17.491Z,71.33
2023-03-15T10:01:45.337Z,72.15
2023-03-15T10:04:26.202Z,71.41
2023-03-15T10:06:56.238Z,72.77
2023-03-15T10:09:26.700Z,73.94
2023-03-15T10:12:03.678Z,73.31
2023-03-15T10:14:48.899Z,73.30
2023-03-15T10:17:22.201Z,71.75
2023-03-15T10:19:53.103Z,69.79
2023-03-15T10:22:28.890Z,68.21
2023-03-15T10:25:01.394Z,70.46
2023-03-15T10:27:35.719Z,70.65
2023-03-15T10:30:14.033Z,71.65
2023-03-15T10:32:43.489Z,71.31
2023-03-15T10:35:16.428Z,70.00
2023-03-15T10:37:44.561Z,70.03
2023-03-15T10:40:15.909Z,70.45
2023-03-15T10:42:45.550Z,69.19
2023-03-15T10:45:24.595Z,68.82
2023-03-15T10:48:00.032Z,67.61
2023-03-15T10:50:33.317Z,67.48
2023-03-15T10:53:04.061Z,65.59
2023-03-15T10:55:34.777Z,64.46
2023-03-15T10:58:20.031Z,63.48
2023-03-15T11:00:52.527Z,62.92
2023-03-15T11:03:22.213Z,60.97
2023-03-15T11:05:53.262Z,60.12
2023-03-15T11:08:22.609Z,60.06
2023-03-15T11:10:57.907Z,60.61
2023-03-15T11:13:30.974Z,59.78
2023-03-15T11:16:14.495Z,62.10
2023-03-15T11:18:47.606Z,60.96
2023-03-15T11:21:20.486Z,59.72
2023-03-15T11:23:53.411Z,57.45
2023-03-15T11:26:33.794Z,58.32
2023-03-15T11:29:05.289Z,56.71
2023-03-15T11:31:33.183Z,57.16
2023-03-15T11:34:05.765Z,55.64
2023-03-15T11:36:39.494Z,54.64
2023-03-15T11:39:08.000Z,53.24
2023-03-15T11:41:42.662Z,53.21
2023-03-15T11:44:28.449Z,52.85
2023-03-15T11:47:00.012Z,53.13
2023-03-15T11:49:36.338Z,52.76
2023-03-15T11:52:06.416Z,53.53
2023-03-15T11:54:34.253Z,51.81
2023-03-15T11:57:03.896Z,52.20
2023-03-15T11:59:33.636Z,51.59
2023-03-15T12:02:27.796Z,51.41
2023-03-15T12:04:57.255Z,51.13
2023-03-15T12:07:38.861Z,51.29
2023-03-15T12:10:33.946Z,51.37
2023-03-15T12:13:08.979Z,51.52
2023-03-15T12:15:48.788Z,51.79
2023-03-15T12:18:23.178Z,52.51
2023-03-15T12:20:58.399Z,53.64
2023-03-15T12:23:44.604Z,52.40
2023-03-15T12:26:24.775Z,51.95
2023-03-15T12:29:02.495Z,52.80
2023-03-15T12:31:45.057Z,52.07
2023-03-15T12:34:16.134Z,52.29
2023-03-15T12:36:48.524Z,50.66
2023-03-15T12:39:38.808Z,51.59
2023-03-15T12:42:06.626Z,51.22
2023-03-15T12:44:42.384Z,50.66
2023-03-15T12:47:11.318Z,49.78
2023-03-15T12:49:42.724Z,50.68
2023-03-15T12:52:43.575Z,49.72
2023-03-15T12:55:16.851Z,50.32
2023-03-15T12:57:49.968Z,51.47
2023-03-15T13:00:20.495Z,49.66
2023-03-15T13:02:50.775Z,49.99
2023-03-15T13:05:23.593Z,49.64
2023-03-15T13:07:59.811Z,50.91
2023-03-15T13:10:59.351Z,50.52
2023-03-15T13:13:44.905Z,50.52
2023-03-15T13:16:28.265Z,51.37
2023-03-15T13:19:05.253Z,49.27
2023-03-15T13:21:35.793Z,49.63
2023-03-15T13:24:06.974Z,50.51
2023-03-15T13:26:45.327Z,49.52
2023-03-15T13:29:19.398Z,49.33
2023-03-15T13:31:47.859Z,48.36
2023-03-15T13:34:20.701Z,48.52
2023-03-15T13:36:50.165Z,48.96
2023-03-15T13:39:23.156Z,49.40
2023-03-15T13:41:58.619Z,49.07
2023-03-15T13:44:26.705Z,48.84
2023-03-15T13:46:56.383Z,49.22
2023-03-15T13:49:25.246Z,49.22
2023-03-15T13:51:54.209Z,48.44
2023-03-15T13:54:26.117Z,47.72
2023-03-15T13:56:59.472Z,47.38
2023-03-15T13:59:32.571Z,46.80
2023-03-15T14:02:02.585Z,47.40
2023-03-15T14:04:32.725Z,43.98
2023-03-15T14:07:13.970Z,44.34
2023-03-15T14:09:41.652Z,44.19
2023-03-15T14:12:22.729Z,43.97
2023-03-15T14:14:52.545Z,45.15
2023-03-15T14:17:25.713Z,46.71
2023-03-15T14:19:55.361Z,45.46
2023-03-15T14:22:23.725Z,45.33
2023-03-15T14:24:52.687Z,45.29
2023-03-15T14:27:23.477Z,45.63
2023-03-15T14:29:53.858Z,45.58
2023-03-15T14:32:28.226Z,44.70
2023-03-15T14:35:05.351Z,44.45
2023-03-15T14:37:38.041Z,44.02
2023-03-15T14:40:15.330Z,43.89
2023-03-15T14:42:44.965Z,43.62
2023-03-15T14:45:13.329Z,43.73
2023-03-15T14:47:55.412Z,42.49
2023-03-15T14:50:25.169Z,41.89
2023-03-15T14:52:54.369Z,43.45
2023-03-15T14:55:24.985Z,43.04
2023-03-15T14:57:56.337Z,44.45
2023-03-15T15:00:24.822Z,43.76
2023-03-15T15:02:55.211Z,44.11
2023-03-15T15:05:25.004Z,44.54
2023-03-15T15:07:54.767Z,44.19
2023-03-15T15:10:23.406Z,43.35
2023-03-15T15:13:05.269Z,43.42
2023-03-15T15:15:53.572Z,43.79
2023-03-15T15:18:23.293Z,44.75
2023-03-15T15:20:54.099Z,44.27
2023-03-15T15:23:25.703Z,44.39
2023-03-15T15:25:56.736Z,45.16
2023-03-15T15:28:34.799Z,46.02
2023-03-15T15:31:06.604Z,47.17
2023-03-15T15:33:34.334Z,45.83
2023-03-15T15:36:02.252Z,45.23
2023-03-15T15:38:38.042Z,44.36
2023-03-15T15:41:06.191Z,45.12
2023-03-15T15:43:33.961Z,45.29
2023-03-15T15:46:01.795Z,45.34
2023-03-15T15:48:30.954Z,45.94
2023-03-15T15:50:58.801Z,45.92
2023-03-15T15:53:33.777Z,46.17
2023-03-15T15:56:01.545Z,46.56
2023-03-15T15:58:29.137Z,47.05
2023-03-15T16:00:56.696Z,47.28
2023-03-15T16:03:24.569Z,46.99
2023-03-15T16:05:53.616Z,46.03
2023-03-15T16:08:23.998Z,45.26
2023-03-15T16:10:51.816Z,45.11
2023-03-15T16:13:19.451Z,45.24
2023-03-15T16:15:47.282Z,44.92
2023-03-15T16:18:15.203Z,45.43
2023-03-15T16:20:43.042Z,46.72
2023-03-15T16:23:20.340Z,46.32
2023-03-15T16:25:49.970Z,46.92
2023-03-15T16:28:17.827Z,46.98
2023-03-15T16:30:46.977Z,47.19
2023-03-15T16:33:16.212Z,46.97
2023-03-15T16:35:44.714Z,46.28
2023-03-15T16:38:17.009Z,46.85
2023-03-15T16:40:46.509Z,48.16
2023-03-15T16:43:14.804Z,47.86
2023-03-15T16:48:24.721Z,48.36
2023-03-15T16:50:52.402Z,48.31
2023-03-15T16:53:21.315Z,48.35
2023-03-15T16:55:48.842Z,48.13
2023-03-15T16:58:20.480Z,48.74
2023-03-15T17:00:48.467Z,48.74
2023-03-15T17:03:17.505Z,48.17
2023-03-15T17:05:48.761Z,48.93
2023-03-15T17:08:19.685Z,49.37
2023-03-15T17:10:54.179Z,49.27
2023-03-15T17:13:27.610Z,49.40
2023-03-15T17:15:55.237Z,49.22
2023-03-15T17:18:29.383Z,49.21
2023-03-15T17:20:58.500Z,49.27
2023-03-15T17:23:28.630Z,49.57
2023-03-15T17:25:57.815Z,49.78
2023-03-15T17:28:25.413Z,50.47
2023-03-15T17:30:59.720Z,50.79
2023-03-15T17:33:36.581Z,51.32
2023-03-15T17:36:06.982Z,51.12
2023-03-15T17:38:34.571Z,50.68
2023-03-15T17:41:04.122Z,51.39
2023-03-15T17:43:39.403Z,52.30
2023-03-15T17:46:07.009Z,52.37
2023-03-15T17:48:34.605Z,53.23
2023-03-15T17:51:02.223Z,52.41
2023-03-15T17:53:30.019Z,53.09
2023-03-15T17:55:57.976Z,53.37
2023-03-15T17:58:28.454Z,53.78
2023-03-15T18:00:56.777Z,52.69
2023-03-15T18:03:24.923Z,53.72
2023-03-15T18:05:52.644Z,53.56
2023-03-15T18:08:24.432Z,54.09
2023-03-15T18:10:52.889Z,53.75
2023-03-15T18:13:23.231Z,54.50
2023-03-15T18:15:52.753Z,54.86
2023-03-15T18:18:21.191Z,55.87
2023-03-15T18:20:51.710Z,55.89
2023-03-15T18:23:19.609Z,55.91
2023-03-15T18:25:48.153Z,55.78
2023-03-15T18:28:18.009Z,55.52
2023-03-15T18:30:45.659Z,55.56
2023-03-15T18:33:15.861Z,56.29
2023-03-15T18:35:43.526Z,57.49
2023-03-15T18:38:11.794Z,57.84
2023-03-15T18:40:39.361Z,58.70
2023-03-15T18:43:07.105Z,59.81
2023-03-15T18:45:44.321Z,59.16
2023-03-15T18:48:18.298Z,59.59
2023-03-15T18:50:46.015Z,60.07
2023-03-15T18:53:13.749Z,60.28
2023-03-15T18:55:41.343Z,60.74
2023-03-15T18:58:12.828Z,61.11
2023-03-15T19:00:41.473Z,60.13
2023-03-15T19:03:09.745Z,60.43
2023-03-15T19:05:39.266Z,61.14
2023-03-15T19:08:07.301Z,61.03
2023-03-15T19:10:35.315Z,60.70
2023-03-15T19:13:04.563Z,61.50
2023-03-15T19:15:32.844Z,61.05
2023-03-15T19:18:01.954Z,62.14
2023-03-15T19:20:29.759Z,62.51
2023-03-15T19:23:01.220Z,63.12
2023-03-15T19:25:28.863Z,63.05
2023-03-15T19:27:57.323Z,63.88
2023-03-15T19:30:26.280Z,64.17
2023-03-15T19:32:54.567Z,64.86
2023-03-15T19:35:22.818Z,65.32
2023-03-15T19:37:50.761Z,64.63
2023-03-15T19:40:20.737Z,64.71
2023-03-15T19:42:49.453Z,65.01
2023-03-15T19:45:17.666Z,65.90
2023-03-15T19:47:45.808Z,66.67
2023-03-15T19:50:14.939Z,66.89
2023-03-15T19:52:46.670Z,68.25
2023-03-15T19:55:16.227Z,68.38
2023-03-15T19:57:45.546Z,69.47
2023-03-15T20:00:16.237Z,70.21
2023-03-15T20:02:44.071Z,70.22
2023-03-15T20:05:13.555Z,70.33
2023-03-15T20:07:42.474Z,71.38
2023-03-15T20:10:11.857Z,71.98
2023-03-15T20:12:42.216Z,71.83
2023-03-15T20:15:14.501Z,71.94
2023-03-15T20:17:42.452Z,71.95
2023-03-15T20:20:13.159Z,72.50
2023-03-15T20:22:42.638Z,71.95
2023-03-15T20:25:11.937Z,72.48
2023-03-15T20:27:40.125Z,72.22
2023-03-15T20:30:13.235Z,72.47
2023-03-15T20:32:41.428Z,72.84
2023-03-15T20:35:10.820Z,71.60
2023-03-15T20:37:42.528Z,71.30
2023-03-15T20:40:12.475Z,71.99
2023-03-15T20:42:40.122Z,71.92
2023-03-15T20:45:09.518Z,72.38
2023-03-15T20:47:41.181Z,72.43
2023-03-15T20:50:11.174Z,73.37
2023-03-15T20:52:39.030Z,74.26
2023-03-15T20:55:08.002Z,74.17
2023-03-15T20:57:37.152Z,74.04
2023-03-15T21:00:12.168Z,74.66
2023-03-15T21:02:41.164Z,74.93
2023-03-15T21:05:10.272Z,74.99
2023-03-15T21:07:37.848Z,74.36
2023-03-15T21:10:07.507Z,74.74
2023-03-15T21:12:35.088Z,74.80
2023-03-15T21:15:02.827Z,75.71
2023-03-15T21:17:30.719Z,76.07
2023-03-15T21:20:00.620Z,76.66
2023-03-15T21:22:28.219Z,76.45
2023-03-15T21:24:56.498Z,75.96
2023-03-15T21:27:26.105Z,75.76
2023-03-15T21:29:54.941Z,74.91
2023-03-15T21:32:22.782Z,75.37
2023-03-15T21:34:50.446Z,77.00
2023-03-15T21:37:19.420Z,77.18
2023-03-15T21:39:47.077Z,78.70
2023-03-15T21:42:14.602Z,79.63
2023-03-15T21:44:42.266Z,79.48
2023-03-15T21:47:10.299Z,79.63
2023-03-15T21:49:37.948Z,79.73
2023-03-15T21:52:05.491Z,79.63
2023-03-15T21:54:34.447Z,81.89
2023-03-15T21:57:02.031Z,82.09
2023-03-15T21:59:29.589Z,82.59
2023-03-15T22:01:58.125Z,82.32
2023-03-15T22:04:25.845Z,81.85
2023-03-15T22:06:53.648Z,82.70
2023-03-15T22:09:23.215Z,80.98
2023-03-15T22:11:52.380Z,81.91
2023-03-15T22:14:21.722Z,81.81
2023-03-15T22:16:49.341Z,82.09
2023-03-15T22:19:17.519Z,83.36
2023-03-15T22:21:45.083Z,82.14
2023-03-15T22:24:12.831Z,82.65
2023-03-15T22:26:42.819Z,82.77
2023-03-15T22:29:11.940Z,84.59
2023-03-15T22:31:39.597Z,84.36
2023-03-15T22:34:07.253Z,84.16
2023-03-15T22:36:35.022Z,85.19
2023-03-15T22:39:03.512Z,86.18
2023-03-15T22:41:31.107Z,86.48
2023-03-15T22:43:58.709Z,88.07
2023-03-15T22:46:28.407Z,88.42
2023-03-15T22:48:56.165Z,89.64
2023-03-15T22:51:23.764Z,89.92
2023-03-15T22:53:51.827Z,90.07
2023-03-15T22:56:19.371Z,90.33
2023-03-15T22:58:47.220Z,89.02
2023-03-15T23:01:15.159Z,90.38
2023-03-15T23:03:44.256Z,90.41
2023-03-15T23:06:11.886Z,91.15
2023-03-15T23:08:39.547Z,91.07
2023-03-15T23:11:07.077Z,91.20
2023-03-15T23:13:34.638Z,91.54
2023-03-15T23:16:03.909Z,92.57
2023-03-15T23:18:34.134Z,93.06
2023-03-15T23:21:08.294Z,93.79
2023-03-15T23:23:36.216Z,93.06
2023-03-15T23:26:03.852Z,94.05
2023-03-15T23:28:32.561Z,93.62
2023-03-15T23:31:01.779Z,94.69
2023-03-15T23:33:30.084Z,94.44
2023-03-15T23:35:57.863Z,94.79
2023-03-15T23:38:29.508Z,95.50
2023-03-15T23:41:00.013Z,94.99
2023-03-15T23:43:28.401Z,95.01
2023-03-15T23:45:57.054Z,94.56
2023-03-15T23:48:25.355Z,95.47
2023-03-15T23:50:54.308Z,96.33
2023-03-15T23:53:22.005Z,97.11
2023-03-15T23:55:56.071Z,97.91
2023-03-15T23:58:25.669Z,97.32
